sensor_id;sensor_type;location;lat;lon;timestamp;pressure;altitude;pressure_sealevel;temperature;humidity
40850;BME280;26571;41.610;25.380;2023-02-02T00:00:53;98459.22;;;3.70;nan
40850;BME280;26571;41.610;25.380;2023-02-02T00:03:19;98456.00;;;3.77;nan
40850;BME280;26571;41.610;25.380;2023-02-02T00:05:46;98456.50;;;3.71;nan
40850;BME280;26571;41.610;25.380;2023-02-02T00:08:12;98451.28;;;3.71;nan
40850;BME280;26571;41.610;25.380;2023-02-02T00:10:37;98454.13;;;3.79;nan
40850;BME280;26571;41.610;25.380;2023-02-02T00:13:03;98450.50;;;3.92;nan
40850;BME280;26571;41.610;25.380;2023-02-02T00:15:28;98454.41;;;3.97;nan
40850;BME280;26571;41.610;25.380;2023-02-02T00:17:53;98449.09;;;3.99;nan
40850;BME280;26571;41.610;25.380;2023-02-02T00:20:19;98448.75;;;3.92;nan
40850;BME280;26571;41.610;25.380;2023-02-02T00:22:46;98441.75;;;3.93;nan
40850;BME280;26571;41.610;25.380;2023-02-02T00:25:11;98443.06;;;3.98;nan
40850;BME280;26571;41.610;25.380;2023-02-02T00:27:37;98442.53;;;4.04;nan
40850;BME280;26571;41.610;25.380;2023-02-02T00:30:02;98448.19;;;3.88;nan
40850;BME280;26571;41.610;25.380;2023-02-02T00:32:28;98451.59;;;3.89;nan
40850;BME280;26571;41.610;25.380;2023-02-02T00:34:53;98454.91;;;3.91;nan
40850;BME280;26571;41.610;25.380;2023-02-02T00:37:18;98464.00;;;3.97;nan
40850;BME280;26571;41.610;25.380;2023-02-02T00:39:44;98459.75;;;3.96;nan
40850;BME280;26571;41.610;25.380;2023-02-02T00:42:10;98458.91;;;3.95;nan
40850;BME280;26571;41.610;25.380;2023-02-02T00:44:35;98455.63;;;3.93;nan
40850;BME280;26571;41.610;25.380;2023-02-02T00:47:19;98450.28;;;3.95;nan
40850;BME280;26571;41.610;25.380;2023-02-02T00:49:46;98456.44;;;3.94;nan
40850;BME280;26571;41.610;25.380;2023-02-02T00:52:12;98458.78;;;3.97;nan
40850;BME280;26571;41.610;25.380;2023-02-02T00:54:37;98456.19;;;3.97;nan
40850;BME280;26571;41.610;25.380;2023-02-02T00:57:03;98443.16;;;3.97;nan
40850;BME280;26571;41.610;25.380;2023-02-02T00:59:28;98441.38;;;3.97;nan
40850;BME280;26571;41.610;25.380;2023-02-02T01:01:53;98436.66;;;3.91;nan
40850;BME280;26571;41.610;25.380;2023-02-02T01:04:19;98429.13;;;3.88;nan
40850;BME280;26571;41.610;25.380;2023-02-02T01:06:44;98422.38;;;3.85;nan
40850;BME280;26571;41.610;25.380;2023-02-02T01:09:10;98426.09;;;3.72;nan
40850;BME280;26571;41.610;25.380;2023-02-02T01:11:35;98430.84;;;3.67;nan
40850;BME280;26571;41.610;25.380;2023-02-02T01:14:01;98435.94;;;3.57;nan
40850;BME280;26571;41.610;25.380;2023-02-02T01:16:26;98424.72;;;3.56;nan
40850;BME280;26571;41.610;25.380;2023-02-02T01:18:52;98431.47;;;3.59;nan
40850;BME280;26571;41.610;25.380;2023-02-02T01:21:18;98430.13;;;3.65;nan
40850;BME280;26571;41.610;25.380;2023-02-02T01:23:43;98429.31;;;3.64;nan
40850;BME280;26571;41.610;25.380;2023-02-02T01:26:10;98434.25;;;3.67;nan
40850;BME280;26571;41.610;25.380;2023-02-02T01:28:37;98441.47;;;3.75;nan
40850;BME280;26571;41.610;25.380;2023-02-02T01:31:08;98442.88;;;3.79;nan
40850;BME280;26571;41.610;25.380;2023-02-02T01:33:34;98442.97;;;3.77;nan
40850;BME280;26571;41.610;25.380;2023-02-02T01:36:03;98438.13;;;3.73;nan
40850;BME280;26571;41.610;25.380;2023-02-02T01:38:30;98440.69;;;3.63;nan
40850;BME280;26571;41.610;25.380;2023-02-02T01:40:56;98443.66;;;3.58;nan
40850;BME280;26571;41.610;25.380;2023-02-02T01:45:47;98447.91;;;3.59;nan
40850;BME280;26571;41.610;25.380;2023-02-02T01:48:13;98449.31;;;3.63;nan
40850;BME280;26571;41.610;25.380;2023-02-02T01:50:39;98436.50;;;3.72;nan
40850;BME280;26571;41.610;25.380;2023-02-02T01:53:06;98440.06;;;3.71;nan
40850;BME280;26571;41.610;25.380;2023-02-02T01:55:34;98449.88;;;3.67;nan
40850;BME280;26571;41.610;25.380;2023-02-02T02:00:32;98446.09;;;3.71;nan
40850;BME280;26571;41.610;25.380;2023-02-02T02:03:08;98439.38;;;3.69;nan
40850;BME280;26571;41.610;25.380;2023-02-02T02:05:39;98445.50;;;3.68;nan
40850;BME280;26571;41.610;25.380;2023-02-02T02:08:18;98440.06;;;3.71;nan
40850;BME280;26571;41.610;25.380;2023-02-02T02:10:44;98442.19;;;3.66;nan
40850;BME280;26571;41.610;25.380;2023-02-02T02:13:10;98446.44;;;3.67;nan
40850;BME280;26571;41.610;25.380;2023-02-02T02:15:46;98452.47;;;3.67;nan
40850;BME280;26571;41.610;25.380;2023-02-02T02:18:43;98416.25;;;3.43;nan
40850;BME280;26571;41.610;25.380;2023-02-02T02:21:28;98450.13;;;3.64;nan
40850;BME280;26571;41.610;25.380;2023-02-02T02:32:55;98444.56;;;3.57;nan
40850;BME280;26571;41.610;25.380;2023-02-02T02:35:35;98448.84;;;3.47;nan
40850;BME280;26571;41.610;25.380;2023-02-02T02:38:19;98462.09;;;3.55;nan
40850;BME280;26571;41.610;25.380;2023-02-02T02:40:54;98466.34;;;3.56;nan
40850;BME280;26571;41.610;25.380;2023-02-02T02:43:26;98454.97;;;3.57;nan
40850;BME280;26571;41.610;25.380;2023-02-02T02:45:53;98463.56;;;3.48;nan
40850;BME280;26571;41.610;25.380;2023-02-02T02:48:19;98459.97;;;3.38;nan
40850;BME280;26571;41.610;25.380;2023-02-02T02:50:44;98461.06;;;3.35;nan
40850;BME280;26571;41.610;25.380;2023-02-02T02:53:20;98456.91;;;3.33;nan
40850;BME280;26571;41.610;25.380;2023-02-02T02:56:14;98459.75;;;3.41;nan
40850;BME280;26571;41.610;25.380;2023-02-02T03:01:14;98454.31;;;3.44;nan
40850;BME280;26571;41.610;25.380;2023-02-02T03:08:45;98446.50;;;3.55;nan
40850;BME280;26571;41.610;25.380;2023-02-02T03:11:13;98440.19;;;3.58;nan
40850;BME280;26571;41.610;25.380;2023-02-02T03:13:40;98445.75;;;3.65;nan
40850;BME280;26571;41.610;25.380;2023-02-02T03:16:07;98440.06;;;3.71;nan
40850;BME280;26571;41.610;25.380;2023-02-02T03:18:33;98446.50;;;3.44;nan
40850;BME280;26571;41.610;25.380;2023-02-02T03:20:59;98446.88;;;3.40;nan
40850;BME280;26571;41.610;25.380;2023-02-02T03:23:25;98432.31;;;3.37;nan
40850;BME280;26571;41.610;25.380;2023-02-02T03:25:50;98444.38;;;3.49;nan
40850;BME280;26571;41.610;25.380;2023-02-02T03:28:17;98444.50;;;3.36;nan
40850;BME280;26571;41.610;25.380;2023-02-02T03:30:44;98455.97;;;3.45;nan
40850;BME280;26571;41.610;25.380;2023-02-02T03:33:12;98450.53;;;3.37;nan
40850;BME280;26571;41.610;25.380;2023-02-02T03:35:38;98450.06;;;3.43;nan
40850;BME280;26571;41.610;25.380;2023-02-02T03:38:03;98458.81;;;3.42;nan
40850;BME280;26571;41.610;25.380;2023-02-02T03:40:29;98448.84;;;3.47;nan
40850;BME280;26571;41.610;25.380;2023-02-02T03:42:55;98451.69;;;3.55;nan
40850;BME280;26571;41.610;25.380;2023-02-02T03:45:20;98446.25;;;3.47;nan
40850;BME280;26571;41.610;25.380;2023-02-02T03:47:46;98434.25;;;3.24;nan
40850;BME280;26571;41.610;25.380;2023-02-02T03:50:11;98445.69;;;3.32;nan
40850;BME280;26571;41.610;25.380;2023-02-02T03:52:37;98438.72;;;3.22;nan
40850;BME280;26571;41.610;25.380;2023-02-02T03:55:02;98435.44;;;3.20;nan
40850;BME280;26571;41.610;25.380;2023-02-02T03:57:28;98437.69;;;3.24;nan
40850;BME280;26571;41.610;25.380;2023-02-02T03:59:53;98431.28;;;3.06;nan
40850;BME280;26571;41.610;25.380;2023-02-02T04:02:19;98435.09;;;2.91;nan
40850;BME280;26571;41.610;25.380;2023-02-02T04:04:44;98430.22;;;2.97;nan
40850;BME280;26571;41.610;25.380;2023-02-02T04:07:09;98422.66;;;3.05;nan
40850;BME280;26571;41.610;25.380;2023-02-02T04:09:35;98432.47;;;3.02;nan
40850;BME280;26571;41.610;25.380;2023-02-02T04:12:00;98431.66;;;3.01;nan
40850;BME280;26571;41.610;25.380;2023-02-02T04:14:26;98422.66;;;3.05;nan
40850;BME280;26571;41.610;25.380;2023-02-02T04:16:51;98421.97;;;3.03;nan
40850;BME280;26571;41.610;25.380;2023-02-02T04:19:17;98434.97;;;3.15;nan
40850;BME280;26571;41.610;25.380;2023-02-02T04:21:42;98434.25;;;3.24;nan
40850;BME280;26571;41.610;25.380;2023-02-02T04:24:11;98434.00;;;3.27;nan
40850;BME280;26571;41.610;25.380;2023-02-02T04:26:37;98439.31;;;3.25;nan
40850;BME280;26571;41.610;25.380;2023-02-02T04:29:03;98436.38;;;3.30;nan
40850;BME280;26571;41.610;25.380;2023-02-02T04:31:28;98419.09;;;3.29;nan
40850;BME280;26571;41.610;25.380;2023-02-02T04:33:55;98442.03;;;3.13;nan
40850;BME280;26571;41.610;25.380;2023-02-02T04:36:20;98426.19;;;3.27;nan
40850;BME280;26571;41.610;25.380;2023-02-02T04:38:50;98436.72;;;3.25;nan
40850;BME280;26571;41.610;25.380;2023-02-02T04:41:16;98459.53;;;3.22;nan
40850;BME280;26571;41.610;25.380;2023-02-02T04:43:45;98421.81;;;3.16;nan
40850;BME280;26571;41.610;25.380;2023-02-02T04:46:11;98429.75;;;2.92;nan
40850;BME280;26571;41.610;25.380;2023-02-02T04:48:37;98428.81;;;2.82;nan
40850;BME280;26571;41.610;25.380;2023-02-02T04:51:07;98432.22;;;2.82;nan
40850;BME280;26571;41.610;25.380;2023-02-02T04:53:33;98436.50;;;2.95;nan
40850;BME280;26571;41.610;25.380;2023-02-02T04:56:08;98441.91;;;3.03;nan
40850;BME280;26571;41.610;25.380;2023-02-02T04:58:34;98446.78;;;3.07;nan
40850;BME280;26571;41.610;25.380;2023-02-02T05:01:00;98448.91;;;3.14;nan
40850;BME280;26571;41.610;25.380;2023-02-02T05:03:25;98459.06;;;3.05;nan
40850;BME280;26571;41.610;25.380;2023-02-02T05:05:51;98455.66;;;3.05;nan
40850;BME280;26571;41.610;25.380;2023-02-02T05:08:24;98451.41;;;3.04;nan
40850;BME280;26571;41.610;25.380;2023-02-02T05:10:49;98446.78;;;2.85;nan
40850;BME280;26571;41.610;25.380;2023-02-02T05:13:15;98472.31;;;2.91;nan
40850;BME280;26571;41.610;25.380;2023-02-02T05:15:40;98468.75;;;2.92;nan
40850;BME280;26571;41.610;25.380;2023-02-02T05:18:05;98466.06;;;2.94;nan
40850;BME280;26571;41.610;25.380;2023-02-02T05:20:31;98468.53;;;2.95;nan
40850;BME280;26571;41.610;25.380;2023-02-02T05:22:56;98456.69;;;2.91;nan
40850;BME280;26571;41.610;25.380;2023-02-02T05:25:22;98456.31;;;2.62;nan
40850;BME280;26571;41.610;25.380;2023-02-02T05:27:47;98468.19;;;2.42;nan
40850;BME280;26571;41.610;25.380;2023-02-02T05:30:13;98460.66;;;2.39;nan
40850;BME280;26571;41.610;25.380;2023-02-02T05:32:39;98417.97;;;2.19;nan
40850;BME280;26571;41.610;25.380;2023-02-02T05:35:05;98468.59;;;2.60;nan
40850;BME280;26571;41.610;25.380;2023-02-02T05:37:31;98484.34;;;2.70;nan
40850;BME280;26571;41.610;25.380;2023-02-02T05:39:56;98481.41;;;2.74;nan
40850;BME280;26571;41.610;25.380;2023-02-02T05:42:22;98475.59;;;2.71;nan
40850;BME280;26571;41.610;25.380;2023-02-02T05:44:47;98479.81;;;2.61;nan
40850;BME280;26571;41.610;25.380;2023-02-02T05:47:12;98479.81;;;2.61;nan
40850;BME280;26571;41.610;25.380;2023-02-02T05:49:38;98442.69;;;2.47;nan
40850;BME280;26571;41.610;25.380;2023-02-02T05:52:03;98460.25;;;1.97;nan
40850;BME280;26571;41.610;25.380;2023-02-02T05:54:29;98462.81;;;1.86;nan
40850;BME280;26571;41.610;25.380;2023-02-02T05:56:54;98488.44;;;2.15;nan
40850;BME280;26571;41.610;25.380;2023-02-02T05:59:21;98464.16;;;2.27;nan
40850;BME280;26571;41.610;25.380;2023-02-02T06:01:47;98475.44;;;2.61;nan
40850;BME280;26571;41.610;25.380;2023-02-02T06:04:13;98490.72;;;2.77;nan
40850;BME280;26571;41.610;25.380;2023-02-02T06:06:39;98501.38;;;2.96;nan
40850;BME280;26571;41.610;25.380;2023-02-02T06:09:06;98494.53;;;3.06;nan
40850;BME280;26571;41.610;25.380;2023-02-02T06:11:31;98494.66;;;3.05;nan
40850;BME280;26571;41.610;25.380;2023-02-02T06:13:57;98496.91;;;3.09;nan
40850;BME280;26571;41.610;25.380;2023-02-02T06:16:23;98492.31;;;3.24;nan
40850;BME280;26571;41.610;25.380;2023-02-02T06:18:48;98519.59;;;3.07;nan
40850;BME280;26571;41.610;25.380;2023-02-02T06:21:14;98518.44;;;3.45;nan
40850;BME280;26571;41.610;25.380;2023-02-02T06:23:39;98465.19;;;4.46;nan
40850;BME280;26571;41.610;25.380;2023-02-02T06:26:11;98508.22;;;5.64;nan
40850;BME280;26571;41.610;25.380;2023-02-02T06:28:37;98516.69;;;7.31;nan
40850;BME280;26571;41.610;25.380;2023-02-02T06:31:04;98509.47;;;8.43;nan
40850;BME280;26571;41.610;25.380;2023-02-02T06:33:30;98522.94;;;9.78;nan
40850;BME280;26571;41.610;25.380;2023-02-02T06:35:58;98519.81;;;10.98;nan
40850;BME280;26571;41.610;25.380;2023-02-02T06:38:25;98498.09;;;11.52;nan
40850;BME280;26571;41.610;25.380;2023-02-02T06:40:50;98510.69;;;11.73;nan
40850;BME280;26571;41.610;25.380;2023-02-02T06:43:16;98520.41;;;12.65;nan
40850;BME280;26571;41.610;25.380;2023-02-02T06:45:41;98505.53;;;13.40;nan
40850;BME280;26571;41.610;25.380;2023-02-02T06:48:06;98519.25;;;13.94;nan
40850;BME280;26571;41.610;25.380;2023-02-02T06:50:36;98513.25;;;14.43;nan
40850;BME280;26571;41.610;25.380;2023-02-02T06:53:02;98527.16;;;14.88;nan
40850;BME280;26571;41.610;25.380;2023-02-02T06:55:28;98477.13;;;14.14;nan
40850;BME280;26571;41.610;25.380;2023-02-02T06:57:58;98501.72;;;13.05;nan
40850;BME280;26571;41.610;25.380;2023-02-02T07:00:24;98507.34;;;13.39;nan
40850;BME280;26571;41.610;25.380;2023-02-02T07:02:50;98507.38;;;13.90;nan
40850;BME280;26571;41.610;25.380;2023-02-02T07:05:15;98515.00;;;14.15;nan
40850;BME280;26571;41.610;25.380;2023-02-02T07:07:43;98514.44;;;14.77;nan
40850;BME280;26571;41.610;25.380;2023-02-02T07:10:09;98513.38;;;14.99;nan
40850;BME280;26571;41.610;25.380;2023-02-02T07:12:35;98512.25;;;15.43;nan
40850;BME280;26571;41.610;25.380;2023-02-02T07:15:00;98516.75;;;15.77;nan
40850;BME280;26571;41.610;25.380;2023-02-02T07:17:25;98507.19;;;15.90;nan
40850;BME280;26571;41.610;25.380;2023-02-02T07:19:51;98507.25;;;16.10;nan
40850;BME280;26571;41.610;25.380;2023-02-02T07:22:16;98517.75;;;16.44;nan
40850;BME280;26571;41.610;25.380;2023-02-02T07:24:42;98509.19;;;16.69;nan
40850;BME280;26571;41.610;25.380;2023-02-02T07:27:07;98512.53;;;16.91;nan
40850;BME280;26571;41.610;25.380;2023-02-02T07:29:32;98515.97;;;17.31;nan
40850;BME280;26571;41.610;25.380;2023-02-02T07:31:58;98506.25;;;17.76;nan
40850;BME280;26571;41.610;25.380;2023-02-02T07:34:23;98502.66;;;17.31;nan
40850;BME280;26571;41.610;25.380;2023-02-02T07:36:49;98515.22;;;16.10;nan
40850;BME280;26571;41.610;25.380;2023-02-02T07:39:14;98530.38;;;16.29;nan
40850;BME280;26571;41.610;25.380;2023-02-02T07:41:40;98499.19;;;15.76;nan
40850;BME280;26571;41.610;25.380;2023-02-02T07:44:12;98510.59;;;15.08;nan
40850;BME280;26571;41.610;25.380;2023-02-02T07:46:41;98518.00;;;15.88;nan
40850;BME280;26571;41.610;25.380;2023-02-02T07:49:06;98505.88;;;16.27;nan
40850;BME280;26571;41.610;25.380;2023-02-02T07:51:32;98508.97;;;16.44;nan
40850;BME280;26571;41.610;25.380;2023-02-02T07:53:57;98508.50;;;16.14;nan
40850;BME280;26571;41.610;25.380;2023-02-02T07:56:25;98524.72;;;16.52;nan
40850;BME280;26571;41.610;25.380;2023-02-02T07:58:53;98507.44;;;16.01;nan
40850;BME280;26571;41.610;25.380;2023-02-02T08:01:20;98504.53;;;15.90;nan
40850;BME280;26571;41.610;25.380;2023-02-02T08:03:47;98510.19;;;16.48;nan
40850;BME280;26571;41.610;25.380;2023-02-02T08:06:17;98509.56;;;16.46;nan
40850;BME280;26571;41.610;25.380;2023-02-02T08:08:44;98514.53;;;16.95;nan
40850;BME280;26571;41.610;25.380;2023-02-02T08:11:12;98514.53;;;17.09;nan
40850;BME280;26571;41.610;25.380;2023-02-02T08:13:38;98511.31;;;15.58;nan
40850;BME280;26571;41.610;25.380;2023-02-02T08:16:04;98502.56;;;15.29;nan
40850;BME280;26571;41.610;25.380;2023-02-02T08:18:31;98499.56;;;15.73;nan
40850;BME280;26571;41.610;25.380;2023-02-02T08:20:58;98497.16;;;15.85;nan
40850;BME280;26571;41.610;25.380;2023-02-02T08:23:24;98503.25;;;15.79;nan
40850;BME280;26571;41.610;25.380;2023-02-02T08:25:49;98494.28;;;15.80;nan
40850;BME280;26571;41.610;25.380;2023-02-02T08:28:16;98489.53;;;15.69;nan
40850;BME280;26571;41.610;25.380;2023-02-02T08:30:41;98488.75;;;15.40;nan
40850;BME280;26571;41.610;25.380;2023-02-02T08:33:07;98492.44;;;14.83;nan
40850;BME280;26571;41.610;25.380;2023-02-02T08:35:32;98507.81;;;14.30;nan
40850;BME280;26571;41.610;25.380;2023-02-02T08:37:57;98484.84;;;14.16;nan
40850;BME280;26571;41.610;25.380;2023-02-02T08:40:27;98446.97;;;13.58;nan
40850;BME280;26571;41.610;25.380;2023-02-02T08:42:53;98495.78;;;13.91;nan
40850;BME280;26571;41.610;25.380;2023-02-02T08:45:19;98486.88;;;14.35;nan
40850;BME280;26571;41.610;25.380;2023-02-02T08:47:45;98475.94;;;14.38;nan
40850;BME280;26571;41.610;25.380;2023-02-02T08:50:10;98494.13;;;14.27;nan
40850;BME280;26571;41.610;25.380;2023-02-02T08:52:36;98470.41;;;13.97;nan
40850;BME280;26571;41.610;25.380;2023-02-02T08:55:01;98504.34;;;14.08;nan
40850;BME280;26571;41.610;25.380;2023-02-02T08:57:27;98476.44;;;13.55;nan
40850;BME280;26571;41.610;25.380;2023-02-02T08:59:52;98511.50;;;13.93;nan
40850;BME280;26571;41.610;25.380;2023-02-02T09:02:17;98501.03;;;14.06;nan
40850;BME280;26571;41.610;25.380;2023-02-02T09:04:43;98491.91;;;13.87;nan
40850;BME280;26571;41.610;25.380;2023-02-02T09:07:11;98483.34;;;13.56;nan
40850;BME280;26571;41.610;25.380;2023-02-02T09:09:36;98476.63;;;13.38;nan
40850;BME280;26571;41.610;25.380;2023-02-02T09:12:02;98473.88;;;13.32;nan
40850;BME280;26571;41.610;25.380;2023-02-02T09:14:27;98470.56;;;13.74;nan
40850;BME280;26571;41.610;25.380;2023-02-02T09:16:53;98465.41;;;14.23;nan
40850;BME280;26571;41.610;25.380;2023-02-02T09:19:18;98473.53;;;14.65;nan
40850;BME280;26571;41.610;25.380;2023-02-02T09:21:44;98464.31;;;14.39;nan
40850;BME280;26571;41.610;25.380;2023-02-02T09:24:11;98464.44;;;13.88;nan
40850;BME280;26571;41.610;25.380;2023-02-02T09:26:38;98468.66;;;13.68;nan
40850;BME280;26571;41.610;25.380;2023-02-02T09:29:06;98458.78;;;14.13;nan
40850;BME280;26571;41.610;25.380;2023-02-02T09:31:35;98465.56;;;14.22;nan
40850;BME280;26571;41.610;25.380;2023-02-02T09:34:03;98443.31;;;14.16;nan
40850;BME280;26571;41.610;25.380;2023-02-02T09:36:29;98462.44;;;14.55;nan
40850;BME280;26571;41.610;25.380;2023-02-02T09:38:55;98458.25;;;14.45;nan
40850;BME280;26571;41.610;25.380;2023-02-02T09:44:30;98444.41;;;13.64;nan
40850;BME280;26571;41.610;25.380;2023-02-02T09:49:38;98432.00;;;13.20;nan
40850;BME280;26571;41.610;25.380;2023-02-02T09:55:05;98427.00;;;13.40;nan
40850;BME280;26571;41.610;25.380;2023-02-02T09:57:39;98407.50;;;13.41;nan
40850;BME280;26571;41.610;25.380;2023-02-02T10:00:18;98405.19;;;13.89;nan
40850;BME280;26571;41.610;25.380;2023-02-02T10:02:49;98401.97;;;14.15;nan
40850;BME280;26571;41.610;25.380;2023-02-02T10:05:19;98389.88;;;14.06;nan
40850;BME280;26571;41.610;25.380;2023-02-02T10:07:50;98394.97;;;14.29;nan
40850;BME280;26571;41.610;25.380;2023-02-02T10:10:27;98387.91;;;14.58;nan
40850;BME280;26571;41.610;25.380;2023-02-02T10:12:58;98375.28;;;14.60;nan
40850;BME280;26571;41.610;25.380;2023-02-02T10:15:41;98384.56;;;14.49;nan
40850;BME280;26571;41.610;25.380;2023-02-02T10:20:58;98380.72;;;14.86;nan
40850;BME280;26571;41.610;25.380;2023-02-02T10:36:55;98346.50;;;14.57;nan
40850;BME280;26571;41.610;25.380;2023-02-02T10:45:18;98340.25;;;15.54;nan
40850;BME280;26571;41.610;25.380;2023-02-02T10:47:45;98335.53;;;14.94;nan
40850;BME280;26571;41.610;25.380;2023-02-02T10:52:36;98325.72;;;14.88;nan
40850;BME280;26571;41.610;25.380;2023-02-02T11:03:10;98310.66;;;14.95;nan
40850;BME280;26571;41.610;25.380;2023-02-02T11:05:36;98317.88;;;14.67;nan
40850;BME280;26571;41.610;25.380;2023-02-02T11:08:24;98306.94;;;14.48;nan
40850;BME280;26571;41.610;25.380;2023-02-02T11:10:54;98297.00;;;14.57;nan
40850;BME280;26571;41.610;25.380;2023-02-02T11:13:31;98302.94;;;14.59;nan
40850;BME280;26571;41.610;25.380;2023-02-02T11:16:21;98292.47;;;14.86;nan
40850;BME280;26571;41.610;25.380;2023-02-02T11:18:47;98289.44;;;14.95;nan
40850;BME280;26571;41.610;25.380;2023-02-02T11:21:19;98288.16;;;14.78;nan
40850;BME280;26571;41.610;25.380;2023-02-02T11:26:25;98302.59;;;13.91;nan
40850;BME280;26571;41.610;25.380;2023-02-02T11:28:55;98284.97;;;13.77;nan
40850;BME280;26571;41.610;25.380;2023-02-02T11:31:35;98277.53;;;14.15;nan
40850;BME280;26571;41.610;25.380;2023-02-02T11:34:27;98276.53;;;13.88;nan
40850;BME280;26571;41.610;25.380;2023-02-02T11:37:12;98274.78;;;14.02;nan
40850;BME280;26571;41.610;25.380;2023-02-02T11:39:42;98265.16;;;13.45;nan
40850;BME280;26571;41.610;25.380;2023-02-02T11:42:21;98248.72;;;13.28;nan
40850;BME280;26571;41.610;25.380;2023-02-02T11:44:52;98252.72;;;12.88;nan
40850;BME280;26571;41.610;25.380;2023-02-02T11:47:27;98258.69;;;12.97;nan
40850;BME280;26571;41.610;25.380;2023-02-02T11:49:56;98252.41;;;12.98;nan
40850;BME280;26571;41.610;25.380;2023-02-02T11:52:24;98255.19;;;12.89;nan
40850;BME280;26571;41.610;25.380;2023-02-02T11:54:52;98251.03;;;13.02;nan
40850;BME280;26571;41.610;25.380;2023-02-02T11:57:21;98243.03;;;12.59;nan
40850;BME280;26571;41.610;25.380;2023-02-02T11:59:49;98220.34;;;12.64;nan
40850;BME280;26571;41.610;25.380;2023-02-02T12:02:26;98244.81;;;12.73;nan
40850;BME280;26571;41.610;25.380;2023-02-02T12:05:39;98235.25;;;12.57;nan
40850;BME280;26571;41.610;25.380;2023-02-02T12:07:41;98239.56;;;12.44;nan
40850;BME280;26571;41.610;25.380;2023-02-02T12:10:27;98241.28;;;12.51;nan
40850;BME280;26571;41.610;25.380;2023-02-02T12:13:14;98230.78;;;12.58;nan
40850;BME280;26571;41.610;25.380;2023-02-02T12:16:05;98230.81;;;12.43;nan
40850;BME280;26571;41.610;25.380;2023-02-02T12:24:34;98213.94;;;13.10;nan
40850;BME280;26571;41.610;25.380;2023-02-02T12:35:47;98196.56;;;13.01;nan
40850;BME280;26571;41.610;25.380;2023-02-02T12:43:46;98184.84;;;13.25;nan
40850;BME280;26571;41.610;25.380;2023-02-02T13:02:04;98177.88;;;13.45;nan
40850;BME280;26571;41.610;25.380;2023-02-02T13:07:44;98154.53;;;12.84;nan
40850;BME280;26571;41.610;25.380;2023-02-02T13:10:22;98156.50;;;13.18;nan
40850;BME280;26571;41.610;25.380;2023-02-02T13:12:54;98158.19;;;13.05;nan
40850;BME280;26571;41.610;25.380;2023-02-02T13:15:23;98148.03;;;12.87;nan
40850;BME280;26571;41.610;25.380;2023-02-02T13:17:54;98152.00;;;12.98;nan
40850;BME280;26571;41.610;25.380;2023-02-02T13:22:59;98094.94;;;12.82;nan
40850;BME280;26571;41.610;25.380;2023-02-02T13:25:30;98156.94;;;13.43;nan
40850;BME280;26571;41.610;25.380;2023-02-02T13:27:59;98164.44;;;13.68;nan
40850;BME280;26571;41.610;25.380;2023-02-02T13:30:51;98150.13;;;13.90;nan
40850;BME280;26571;41.610;25.380;2023-02-02T13:33:23;98152.78;;;13.90;nan
40850;BME280;26571;41.610;25.380;2023-02-02T13:40:47;98146.78;;;13.47;nan
40850;BME280;26571;41.610;25.380;2023-02-02T14:01:56;98132.31;;;13.71;nan
40850;BME280;26571;41.610;25.380;2023-02-02T14:04:26;98121.97;;;13.76;nan
40850;BME280;26571;41.610;25.380;2023-02-02T14:06:58;98121.81;;;13.84;nan
40850;BME280;26571;41.610;25.380;2023-02-02T14:09:32;98121.91;;;14.04;nan
40850;BME280;26571;41.610;25.380;2023-02-02T14:12:04;98121.56;;;14.14;nan
40850;BME280;26571;41.610;25.380;2023-02-02T14:14:32;98119.72;;;14.14;nan
40850;BME280;26571;41.610;25.380;2023-02-02T14:24:50;98109.66;;;13.96;nan
40850;BME280;26571;41.610;25.380;2023-02-02T14:34:59;98101.47;;;13.57;nan
40850;BME280;26571;41.610;25.380;2023-02-02T14:40:27;98115.53;;;13.08;nan
40850;BME280;26571;41.610;25.380;2023-02-02T14:43:02;98111.50;;;12.90;nan
40850;BME280;26571;41.610;25.380;2023-02-02T14:51:17;98115.50;;;12.65;nan
40850;BME280;26571;41.610;25.380;2023-02-02T14:53:49;98115.50;;;12.65;nan
40850;BME280;26571;41.610;25.380;2023-02-02T14:56:17;98113.06;;;12.63;nan
40850;BME280;26571;41.610;25.380;2023-02-02T15:06:48;98102.31;;;12.86;nan
40850;BME280;26571;41.610;25.380;2023-02-02T15:22:34;98109.72;;;12.04;nan
40850;BME280;26571;41.610;25.380;2023-02-02T15:25:05;98118.72;;;12.09;nan
40850;BME280;26571;41.610;25.380;2023-02-02T15:27:37;98118.44;;;12.19;nan
40850;BME280;26571;41.610;25.380;2023-02-02T15:30:06;98113.34;;;12.18;nan
40850;BME280;26571;41.610;25.380;2023-02-02T15:32:34;98113.88;;;12.13;nan
40850;BME280;26571;41.610;25.380;2023-02-02T15:35:03;98132.06;;;12.23;nan
40850;BME280;26571;41.610;25.380;2023-02-02T15:37:35;98128.50;;;12.45;nan
40850;BME280;26571;41.610;25.380;2023-02-02T15:40:20;98122.66;;;12.50;nan
40850;BME280;26571;41.610;25.380;2023-02-02T15:42:55;98127.72;;;12.66;nan
40850;BME280;26571;41.610;25.380;2023-02-02T15:50:48;98148.47;;;12.69;nan
40850;BME280;26571;41.610;25.380;2023-02-02T15:53:21;98153.25;;;12.59;nan
40850;BME280;26571;41.610;25.380;2023-02-02T15:55:47;98132.31;;;12.42;nan
40850;BME280;26571;41.610;25.380;2023-02-02T15:58:39;98155.09;;;12.80;nan
40850;BME280;26571;41.610;25.380;2023-02-02T16:01:14;98161.13;;;12.74;nan
40850;BME280;26571;41.610;25.380;2023-02-02T16:03:58;98165.94;;;12.70;nan
40850;BME280;26571;41.610;25.380;2023-02-02T16:06:28;98167.03;;;12.76;nan
40850;BME280;26571;41.610;25.380;2023-02-02T16:08:54;98206.94;;;12.66;nan
40850;BME280;26571;41.610;25.380;2023-02-02T16:11:21;98163.09;;;12.35;nan
40850;BME280;26571;41.610;25.380;2023-02-02T16:13:59;98190.28;;;12.65;nan
40850;BME280;26571;41.610;25.380;2023-02-02T16:16:37;98198.09;;;12.74;nan
40850;BME280;26571;41.610;25.380;2023-02-02T16:24:22;98218.31;;;12.66;nan
40850;BME280;26571;41.610;25.380;2023-02-02T16:26:50;98215.13;;;12.71;nan
40850;BME280;26571;41.610;25.380;2023-02-02T16:29:16;98214.94;;;12.73;nan